createdAt,value
2023-04-28T00:01:32.749Z,11.71
2023-04-28T00:04:00.889Z,11.75
2023-04-28T00:06:58.128Z,11.71
2023-04-28T00:09:24.631Z,11.70
2023-04-28T00:11:51.002Z,11.71
2023-04-28T00:14:17.665Z,11.73
2023-04-28T00:16:44.920Z,11.73
2023-04-28T00:19:11.329Z,11.71
2023-04-28T00:21:37.709Z,11.67
2023-04-28T00:24:04.168Z,11.68
2023-04-28T00:26:30.596Z,11.71
2023-04-28T00:28:56.959Z,11.68
2023-04-28T00:31:23.332Z,11.71
2023-04-28T00:33:49.636Z,11.73
2023-04-28T00:36:16.156Z,11.67
2023-04-28T00:38:42.519Z,11.66
2023-04-28T00:41:12.393Z,11.67
2023-04-28T00:43:46.481Z,11.68
2023-04-28T00:46:20.989Z,11.66
2023-04-28T00:48:47.955Z,11.55
2023-04-28T00:51:14.794Z,11.52
2023-04-28T00:53:41.622Z,11.53
2023-04-28T00:56:08.220Z,11.54
2023-04-28T00:58:34.899Z,11.51
2023-04-28T01:01:09.606Z,11.52
2023-04-28T01:03:38.270Z,11.50
2023-04-28T01:06:06.622Z,11.45
2023-04-28T01:08:34.483Z,11.46
2023-04-28T01:11:01.932Z,11.39
2023-04-28T01:13:28.721Z,11.42
2023-04-28T01:15:58.886Z,11.36
2023-04-28T01:18:25.669Z,11.40
2023-04-28T01:20:52.051Z,11.36
2023-04-28T01:23:18.491Z,11.36
2023-04-28T01:25:44.863Z,11.36
2023-04-28T01:28:11.654Z,11.29
2023-04-28T01:30:38.145Z,11.25
2023-04-28T01:33:04.637Z,11.21
2023-04-28T01:35:31.334Z,11.21
2023-04-28T01:37:57.788Z,11.09
2023-04-28T01:40:24.282Z,11.10
2023-04-28T01:42:51.051Z,11.12
2023-04-28T01:45:17.429Z,11.06
2023-04-28T01:47:43.749Z,11.06
2023-04-28T01:50:10.537Z,11.04
2023-04-28T01:52:36.852Z,11.15
2023-04-28T01:55:03.472Z,10.99
2023-04-28T01:57:29.811Z,10.97
2023-04-28T01:59:56.301Z,10.94
2023-04-28T02:02:22.845Z,10.97
2023-04-28T02:04:49.317Z,10.82
2023-04-28T02:07:15.671Z,10.75
2023-04-28T02:09:41.970Z,10.74
2023-04-28T02:12:08.265Z,10.77
2023-04-28T02:14:34.647Z,10.70
2023-04-28T02:17:02.944Z,10.71
2023-04-28T02:19:29.309Z,10.73
2023-04-28T02:21:55.638Z,10.74
2023-04-28T02:24:22.016Z,10.70
2023-04-28T02:26:48.910Z,10.87
2023-04-28T02:29:15.430Z,10.79
2023-04-28T02:31:41.906Z,10.71
2023-04-28T02:34:08.386Z,10.63
2023-04-28T02:36:34.906Z,10.61
2023-04-28T02:39:01.315Z,10.61
2023-04-28T02:41:27.805Z,10.62
2023-04-28T02:43:54.136Z,10.61
2023-04-28T02:48:47.055Z,10.64
2023-04-28T02:51:14.116Z,10.63
2023-04-28T02:53:40.731Z,10.56
2023-04-28T02:56:07.211Z,10.65
2023-04-28T02:58:33.582Z,10.64
2023-04-28T03:01:00.119Z,10.63
2023-04-28T03:03:26.829Z,10.64
2023-04-28T03:05:53.447Z,10.66
2023-04-28T03:08:20.812Z,10.62
2023-04-28T03:10:47.172Z,10.57
2023-04-28T03:13:13.505Z,10.53
2023-04-28T03:15:39.792Z,10.50
2023-04-28T03:18:06.156Z,10.54
2023-04-28T03:20:32.489Z,10.38
2023-04-28T03:22:58.923Z,10.39
2023-04-28T03:25:25.702Z,10.20
2023-04-28T03:27:52.120Z,10.35
2023-04-28T03:30:18.490Z,10.33
2023-04-28T03:32:44.898Z,10.23
2023-04-28T03:35:11.285Z,10.30
2023-04-28T03:37:37.657Z,10.37
2023-04-28T03:40:04.381Z,10.39
2023-04-28T03:42:30.826Z,10.41
2023-04-28T03:44:57.174Z,10.36
2023-04-28T03:47:23.523Z,10.40
2023-04-28T03:49:50.279Z,10.42
2023-04-28T03:52:16.626Z,10.35
2023-04-28T03:54:43.068Z,10.36
2023-04-28T03:57:09.428Z,10.37
2023-04-28T03:59:35.875Z,10.38
2023-04-28T04:02:02.313Z,10.37
2023-04-28T04:04:28.935Z,10.29
2023-04-28T04:06:55.474Z,10.32
2023-04-28T04:09:21.898Z,10.29
2023-04-28T04:11:48.242Z,10.33
2023-04-28T04:14:14.816Z,10.32
2023-04-28T04:16:41.385Z,10.28
2023-04-28T04:19:07.821Z,10.25
2023-04-28T04:21:34.150Z,10.27
2023-04-28T04:24:01.245Z,10.23
2023-04-28T04:26:27.612Z,10.22
2023-04-28T04:28:53.932Z,10.24
2023-04-28T04:31:20.616Z,10.23
2023-04-28T04:33:47.545Z,10.16
2023-04-28T04:36:13.931Z,10.15
2023-04-28T04:38:40.490Z,10.18
2023-04-28T04:41:06.971Z,10.16
2023-04-28T04:43:33.351Z,10.16
2023-04-28T04:45:59.972Z,10.14
2023-04-28T04:48:26.378Z,10.13
2023-04-28T04:50:52.691Z,10.12
2023-04-28T04:53:19.111Z,10.14
2023-04-28T04:55:45.519Z,10.12
2023-04-28T04:58:12.161Z,10.16
2023-04-28T05:00:38.841Z,10.21
2023-04-28T05:03:06.331Z,10.10
2023-04-28T05:05:33.023Z,10.14
2023-04-28T05:07:59.503Z,10.22
2023-04-28T05:10:27.375Z,10.23
2023-04-28T05:12:54.134Z,10.21
2023-04-28T05:15:20.683Z,10.03
2023-04-28T05:17:47.086Z,9.86
2023-04-28T05:20:13.503Z,9.86
2023-04-28T05:22:39.918Z,9.77
2023-04-28T05:25:07.223Z,9.77
2023-04-28T05:27:33.663Z,9.80
2023-04-28T05:30:00.003Z,9.86
2023-04-28T05:32:26.330Z,9.87
2023-04-28T05:34:52.772Z,9.80
2023-04-28T05:37:19.133Z,9.71
2023-04-28T05:39:45.940Z,9.69
2023-04-28T05:42:12.482Z,9.73
2023-04-28T05:44:39.493Z,9.73
2023-04-28T05:47:07.097Z,9.72
2023-04-28T05:49:33.404Z,9.80
2023-04-28T05:51:59.720Z,9.75
2023-04-28T05:54:26.984Z,9.75
2023-04-28T05:56:53.570Z,9.65
2023-04-28T05:59:19.980Z,9.63
2023-04-28T06:01:46.371Z,9.63
2023-04-28T06:04:12.937Z,9.61
2023-04-28T06:06:39.475Z,9.67
2023-04-28T06:09:05.885Z,9.64
2023-04-28T06:11:32.251Z,9.66
2023-04-28T06:13:58.596Z,9.60
2023-04-28T06:16:25.156Z,9.59
2023-04-28T06:18:51.604Z,9.62
2023-04-28T06:21:18.136Z,9.59
2023-04-28T06:23:44.557Z,9.63
2023-04-28T06:26:10.990Z,9.55
2023-04-28T06:28:37.386Z,9.66
2023-04-28T06:31:03.853Z,9.59
2023-04-28T06:33:30.356Z,9.73
2023-04-28T06:35:56.710Z,9.71
2023-04-28T06:38:23.163Z,9.69
2023-04-28T06:40:49.526Z,9.67
2023-04-28T06:43:15.920Z,9.69
2023-04-28T06:45:42.374Z,9.70
2023-04-28T06:48:08.803Z,9.72
2023-04-28T06:50:36.887Z,9.75
2023-04-28T06:53:03.435Z,9.75
2023-04-28T06:55:29.790Z,9.77
2023-04-28T06:57:56.389Z,9.75
2023-04-28T07:00:23.227Z,9.85
2023-04-28T07:02:49.797Z,9.74
2023-04-28T07:05:18.248Z,9.67
2023-04-28T07:07:45.394Z,9.77
2023-04-28T07:10:11.831Z,9.80
2023-04-28T07:12:38.180Z,9.90
2023-04-28T07:15:06.493Z,9.94
2023-04-28T07:17:33.320Z,9.97
2023-04-28T07:19:59.730Z,9.92
2023-04-28T07:22:26.148Z,10.01
2023-04-28T07:24:53.040Z,10.04
2023-04-28T07:27:19.357Z,10.02
2023-04-28T07:29:45.827Z,10.00
2023-04-28T07:32:12.189Z,10.05
2023-04-28T07:34:38.591Z,10.21
2023-04-28T07:37:05.136Z,10.31
2023-04-28T07:39:33.960Z,10.34
2023-04-28T07:42:02.492Z,10.38
2023-04-28T07:44:29.959Z,10.35
2023-04-28T07:46:56.846Z,10.33
2023-04-28T07:49:23.377Z,10.32
2023-04-28T07:51:52.051Z,10.39
2023-04-28T07:54:18.579Z,10.50
2023-04-28T07:56:45.199Z,10.47
2023-04-28T07:59:11.512Z,10.58
2023-04-28T08:01:37.818Z,10.57
2023-04-28T08:04:04.381Z,10.69
2023-04-28T08:06:30.989Z,10.72
2023-04-28T08:08:57.409Z,10.69
2023-04-28T08:11:23.772Z,10.71
2023-04-28T08:13:50.242Z,10.76
2023-04-28T08:16:16.726Z,10.84
2023-04-28T08:18:43.158Z,10.91
2023-04-28T08:21:09.848Z,11.02
2023-04-28T08:23:36.313Z,11.04
2023-04-28T08:26:02.981Z,10.90
2023-04-28T08:28:29.367Z,11.17
2023-04-28T08:30:56.067Z,11.10
2023-04-28T08:33:24.038Z,11.18
2023-04-28T08:35:51.135Z,11.23
2023-04-28T08:38:18.102Z,11.17
2023-04-28T08:40:44.632Z,11.22
2023-04-28T08:43:11.461Z,11.50
2023-04-28T08:45:42.954Z,11.34
2023-04-28T08:48:22.885Z,11.36
2023-04-28T08:50:51.981Z,11.35
2023-04-28T08:53:23.628Z,11.42
2023-04-28T08:55:52.729Z,11.49
2023-04-28T08:58:19.277Z,11.58
2023-04-28T09:00:45.984Z,11.66
2023-04-28T09:03:13.665Z,11.74
2023-04-28T09:05:40.536Z,11.93
2023-04-28T09:08:07.090Z,11.89
2023-04-28T09:10:33.550Z,11.75
2023-04-28T09:12:59.855Z,11.83
2023-04-28T09:15:42.769Z,11.81
2023-04-28T09:18:15.788Z,11.83
2023-04-28T09:20:42.181Z,11.85
2023-04-28T09:23:19.891Z,11.92
2023-04-28T09:26:15.780Z,12.16
2023-04-28T09:28:42.135Z,12.19
2023-04-28T09:31:25.142Z,12.11
2023-04-28T09:33:59.002Z,12.18
2023-04-28T09:36:30.597Z,12.32
2023-04-28T09:39:00.897Z,12.47
2023-04-28T09:41:41.881Z,12.41
2023-04-28T09:44:11.934Z,12.41
2023-04-28T09:46:38.610Z,12.38
2023-04-28T09:49:05.729Z,12.50
2023-04-28T09:51:32.381Z,12.78
2023-04-28T09:54:00.969Z,12.74
2023-04-28T09:56:33.109Z,12.75
2023-04-28T09:59:00.843Z,12.84
2023-04-28T10:01:32.546Z,12.72
2023-04-28T10:04:02.608Z,12.93
2023-04-28T10:06:30.172Z,13.06
2023-04-28T10:08:58.621Z,13.13
2023-04-28T10:11:26.735Z,13.29
2023-04-28T10:13:54.044Z,13.32
2023-04-28T10:16:20.536Z,13.31
2023-04-28T10:18:47.599Z,13.45
2023-04-28T10:21:18.557Z,13.45
2023-04-28T10:24:00.421Z,13.67
2023-04-28T10:27:10.034Z,13.75
2023-04-28T10:29:36.567Z,13.91
2023-04-28T10:32:19.032Z,13.97
2023-04-28T10:34:45.700Z,14.12
2023-04-28T10:37:14.719Z,14.03
2023-04-28T10:39:41.959Z,14.02
2023-04-28T10:42:45.742Z,14.01
2023-04-28T10:45:12.095Z,14.08
2023-04-28T10:48:06.264Z,14.14
2023-04-28T10:50:38.988Z,14.09
2023-04-28T10:53:06.303Z,14.05
2023-04-28T10:55:39.925Z,14.00
2023-04-28T10:58:15.479Z,14.22
2023-04-28T11:00:43.508Z,14.32
2023-04-28T11:03:09.985Z,14.34
2023-04-28T11:05:36.726Z,14.58
2023-04-28T11:08:18.510Z,14.71
2023-04-28T11:11:25.697Z,14.60
2023-04-28T11:14:15.847Z,14.36
2023-04-28T11:16:59.872Z,14.67
2023-04-28T11:19:28.468Z,14.72
2023-04-28T11:21:57.204Z,14.54
2023-04-28T11:24:25.724Z,14.49
2023-04-28T11:26:54.719Z,14.48
2023-04-28T11:29:33.882Z,14.53
2023-04-28T11:32:00.473Z,14.43
2023-04-28T11:34:26.985Z,14.26
2023-04-28T11:36:54.971Z,14.24
2023-04-28T11:39:29.603Z,14.10
2023-04-28T11:41:56.972Z,14.13
2023-04-28T11:44:25.531Z,14.21
2023-04-28T11:46:57.352Z,14.36
2023-04-28T11:49:30.387Z,14.42
2023-04-28T11:51:59.899Z,14.47
2023-04-28T11:54:28.108Z,14.44
2023-04-28T11:56:56.551Z,14.50
2023-04-28T11:59:34.807Z,14.48
2023-04-28T12:02:03.587Z,14.67
2023-04-28T12:04:37.904Z,14.74
2023-04-28T12:07:16.212Z,14.82
2023-04-28T12:09:44.577Z,14.80
2023-04-28T12:12:13.716Z,14.83
2023-04-28T12:15:01.557Z,15.00
2023-04-28T12:17:29.784Z,15.71
2023-04-28T12:19:59.646Z,16.07
2023-04-28T12:22:26.373Z,16.23
2023-04-28T12:25:13.225Z,16.31
2023-04-28T12:27:41.037Z,16.59
2023-04-28T12:30:24.972Z,16.84
2023-04-28T12:32:52.074Z,16.94
2023-04-28T12:35:21.824Z,16.99
2023-04-28T12:37:48.136Z,17.07
2023-04-28T12:40:15.350Z,17.19
2023-04-28T12:42:41.694Z,17.17
2023-04-28T12:45:11.118Z,17.75
2023-04-28T12:47:38.558Z,17.66
2023-04-28T12:50:06.533Z,17.48
2023-04-28T12:52:34.609Z,16.98
2023-04-28T12:55:01.225Z,17.16
2023-04-28T12:57:28.742Z,17.13
2023-04-28T12:59:56.566Z,17.06
2023-04-28T13:02:23.501Z,17.24
2023-04-28T13:04:51.793Z,17.26
2023-04-28T13:07:18.376Z,16.92
2023-04-28T13:09:45.475Z,16.78
2023-04-28T13:12:12.370Z,16.76
2023-04-28T13:14:38.818Z,16.72
2023-04-28T13:17:05.204Z,16.81
2023-04-28T13:19:33.625Z,16.87
2023-04-28T13:22:00.166Z,16.70
2023-04-28T13:24:26.514Z,16.72
2023-04-28T13:26:53.160Z,16.83
2023-04-28T13:29:19.559Z,16.75
2023-04-28T13:31:46.505Z,16.81
2023-04-28T13:34:17.381Z,16.73
2023-04-28T13:36:44.098Z,16.78
2023-04-28T13:39:14.808Z,16.67
2023-04-28T13:41:41.431Z,16.69
2023-04-28T13:44:08.406Z,16.64
2023-04-28T13:46:34.834Z,16.52
2023-04-28T13:49:01.611Z,16.36
2023-04-28T13:51:28.694Z,16.27
2023-04-28T13:53:55.266Z,16.38
2023-04-28T13:56:21.870Z,16.39
2023-04-28T13:58:48.303Z,16.40
2023-04-28T14:01:14.946Z,16.47
2023-04-28T14:03:41.677Z,16.54
2023-04-28T14:06:08.582Z,16.76
2023-04-28T14:08:35.107Z,16.80
2023-04-28T14:11:01.509Z,16.68
2023-04-28T14:13:27.903Z,16.72
2023-04-28T14:15:59.083Z,16.64
2023-04-28T14:18:26.887Z,16.70
2023-04-28T14:20:54.586Z,16.78
2023-04-28T14:23:22.367Z,16.98
2023-04-28T14:25:48.789Z,17.08
2023-04-28T14:28:15.311Z,17.20
2023-04-28T14:30:41.641Z,17.25
2023-04-28T14:33:08.314Z,17.05
2023-04-28T14:35:34.826Z,17.13
2023-04-28T14:38:01.337Z,17.05
2023-04-28T14:40:27.678Z,16.97
2023-04-28T14:42:53.986Z,16.95
2023-04-28T14:45:20.450Z,16.84
2023-04-28T14:47:47.366Z,16.87
2023-04-28T14:50:14.246Z,16.83
2023-04-28T14:52:41.109Z,16.79
2023-04-28T14:55:08.049Z,16.94
2023-04-28T14:57:34.947Z,17.19
2023-04-28T15:00:02.264Z,17.13
2023-04-28T15:02:29.545Z,17.58
2023-04-28T15:04:57.183Z,17.65
2023-04-28T15:07:26.423Z,17.90
2023-04-28T15:09:52.819Z,17.94
2023-04-28T15:12:20.871Z,17.96
2023-04-28T15:14:47.681Z,18.49
2023-04-28T15:17:14.214Z,18.30
2023-04-28T15:19:40.511Z,18.44
2023-04-28T15:22:06.994Z,17.96
2023-04-28T15:24:33.480Z,18.28
2023-04-28T15:26:59.798Z,18.43
2023-04-28T15:29:26.136Z,17.99
2023-04-28T15:31:52.458Z,17.80
2023-04-28T15:34:19.021Z,17.63
2023-04-28T15:36:45.420Z,17.86
2023-04-28T15:39:11.844Z,18.31
2023-04-28T15:41:38.247Z,18.35
2023-04-28T15:44:04.957Z,18.10
2023-04-28T15:46:32.020Z,18.34
2023-04-28T15:48:58.743Z,18.37
2023-04-28T15:51:25.402Z,18.48
2023-04-28T15:53:52.104Z,18.55
2023-04-28T15:56:19.736Z,18.39
2023-04-28T15:58:47.691Z,18.37
2023-04-28T16:01:14.259Z,18.24
2023-04-28T16:03:41.036Z,17.90
2023-04-28T16:06:08.151Z,17.94
2023-04-28T16:08:35.470Z,17.83
2023-04-28T16:11:02.545Z,17.92
2023-04-28T16:13:32.643Z,17.85
2023-04-28T16:15:59.500Z,17.84
2023-04-28T16:18:25.920Z,17.72
2023-04-28T16:20:53.625Z,17.79
2023-04-28T16:23:20.683Z,17.83
2023-04-28T16:25:49.248Z,17.75
2023-04-28T16:28:15.657Z,17.74
2023-04-28T16:30:43.197Z,17.68
2023-04-28T16:33:09.682Z,17.58
2023-04-28T16:35:36.720Z,17.48
2023-04-28T16:38:03.781Z,17.48
2023-04-28T16:40:30.524Z,17.48
2023-04-28T16:42:57.354Z,17.46
2023-04-28T16:45:23.835Z,17.49
2023-04-28T16:47:50.265Z,17.41
2023-04-28T16:50:17.266Z,17.16
2023-04-28T16:52:43.645Z,17.00
2023-04-28T16:55:10.712Z,16.73
2023-04-28T16:57:37.469Z,16.50
2023-04-28T17:00:06.195Z,16.59
2023-04-28T17:02:33.269Z,16.38
2023-04-28T17:04:59.885Z,16.14
2023-04-28T17:07:26.248Z,16.03
2023-04-28T17:09:52.845Z,15.87
2023-04-28T17:12:20.877Z,15.79
2023-04-28T17:14:47.455Z,15.70
2023-04-28T17:17:13.761Z,15.63
2023-04-28T17:19:41.481Z,15.72
2023-04-28T17:22:08.204Z,15.79
2023-04-28T17:24:34.723Z,15.90
2023-04-28T17:27:01.066Z,15.89
2023-04-28T17:29:27.699Z,15.84
2023-04-28T17:31:54.381Z,15.88
2023-04-28T17:34:20.908Z,15.88
2023-04-28T17:36:47.268Z,15.81
2023-04-28T17:39:15.560Z,15.67
2023-04-28T17:41:42.903Z,15.57
2023-04-28T17:44:09.227Z,15.46
2023-04-28T17:46:35.895Z,15.42
2023-04-28T17:49:02.224Z,15.39
2023-04-28T17:51:28.708Z,15.33
2023-04-28T17:53:56.727Z,15.31
2023-04-28T17:56:23.449Z,15.18
2023-04-28T17:58:49.832Z,15.18
2023-04-28T18:01:16.927Z,15.22
2023-04-28T18:03:43.470Z,15.20
2023-04-28T18:06:10.922Z,15.18
2023-04-28T18:08:37.798Z,15.09
2023-04-28T18:11:04.646Z,15.03
2023-04-28T18:13:32.061Z,14.90
2023-04-28T18:15:58.361Z,14.85
2023-04-28T18:18:25.452Z,14.85
2023-04-28T18:20:58.029Z,14.85
2023-04-28T18:23:25.922Z,14.87
2023-04-28T18:25:52.349Z,14.90
2023-04-28T18:28:18.769Z,14.83
2023-04-28T18:30:45.057Z,14.76
2023-04-28T18:33:11.427Z,14.78
2023-04-28T18:35:38.020Z,14.76
2023-04-28T18:38:05.077Z,14.68
2023-04-28T18:40:32.901Z,14.61
2023-04-28T18:43:01.996Z,14.36
2023-04-28T18:45:30.930Z,14.15
2023-04-28T18:47:58.522Z,14.05
2023-04-28T18:50:25.382Z,14.01
2023-04-28T18:52:51.659Z,13.98
2023-04-28T18:55:18.022Z,13.89
2023-04-28T18:57:44.385Z,13.85
2023-04-28T19:00:11.580Z,13.84
2023-04-28T19:02:38.010Z,13.95
2023-04-28T19:05:05.607Z,13.83
2023-04-28T19:07:32.784Z,13.76
2023-04-28T19:09:59.596Z,13.80
2023-04-28T19:12:26.356Z,13.74
2023-04-28T19:14:52.651Z,13.74
2023-04-28T19:17:18.949Z,13.74
2023-04-28T19:19:45.480Z,13.76
2023-04-28T19:22:31.331Z,13.71
2023-04-28T19:24:58.880Z,13.69
2023-04-28T19:27:29.070Z,13.77
2023-04-28T19:29:55.358Z,13.78
2023-04-28T19:32:21.781Z,13.80
2023-04-28T19:34:48.452Z,13.72
2023-04-28T19:37:14.776Z,13.77
2023-04-28T19:39:41.085Z,13.78
2023-04-28T19:42:07.457Z,13.79
2023-04-28T19:44:33.726Z,13.82
2023-04-28T19:47:04.107Z,13.81
2023-04-28T19:49:30.966Z,13.83
2023-04-28T19:51:58.388Z,13.89
2023-04-28T19:54:24.980Z,13.83
2023-04-28T19:56:53.714Z,13.80
2023-04-28T19:59:20.226Z,13.73
2023-04-28T20:01:46.795Z,13.80
2023-04-28T20:04:13.668Z,13.76
2023-04-28T20:06:40.394Z,13.74
2023-04-28T20:09:06.951Z,13.73
2023-04-28T20:11:33.398Z,13.67
2023-04-28T20:13:59.754Z,13.65
2023-04-28T20:16:26.369Z,13.60
2023-04-28T20:18:52.816Z,13.58
2023-04-28T20:21:19.801Z,13.53
2023-04-28T20:23:46.167Z,13.53
2023-04-28T20:26:14.957Z,13.53
2023-04-28T20:28:44.154Z,13.62
2023-04-28T20:31:10.726Z,13.61
2023-04-28T20:33:37.119Z,13.57
2023-04-28T20:36:05.425Z,13.57
2023-04-28T20:38:32.200Z,13.49
2023-04-28T20:40:59.300Z,13.44
2023-04-28T20:43:29.066Z,13.44
2023-04-28T20:45:55.695Z,13.41
2023-04-28T20:48:22.078Z,13.33
2023-04-28T20:50:52.604Z,13.25
2023-04-28T20:53:18.958Z,13.15
2023-04-28T20:55:45.559Z,13.09
2023-04-28T20:58:11.874Z,13.14
2023-04-28T21:00:40.417Z,12.92
2023-04-28T21:03:07.252Z,12.85
2023-04-28T21:05:33.780Z,12.94
2023-04-28T21:08:00.136Z,12.76
2023-04-28T21:10:26.902Z,12.71
2023-04-28T21:12:53.256Z,12.64
2023-04-28T21:15:19.635Z,12.57
2023-04-28T21:17:46.114Z,12.49
2023-04-28T21:20:13.100Z,12.42
2023-04-28T21:22:39.460Z,12.40
2023-04-28T21:25:08.268Z,12.33
2023-04-28T21:27:34.569Z,12.33
2023-04-28T21:30:00.998Z,12.30
2023-04-28T21:32:27.391Z,12.24
2023-04-28T21:34:53.727Z,12.24
2023-04-28T21:37:20.163Z,12.23
2023-04-28T21:39:46.873Z,12.23
2023-04-28T21:42:13.280Z,12.17
2023-04-28T21:44:40.227Z,12.05
2023-04-28T21:47:09.141Z,12.02
2023-04-28T21:49:36.024Z,12.03
2023-04-28T21:52:02.341Z,12.07
2023-04-28T21:54:28.675Z,12.07
2023-04-28T21:56:54.982Z,12.01
2023-04-28T21:59:21.557Z,12.00
2023-04-28T22:01:48.025Z,12.02
2023-04-28T22:04:14.944Z,12.02
2023-04-28T22:06:42.021Z,11.98
2023-04-28T22:09:09.106Z,12.00
2023-04-28T22:11:35.419Z,12.01
2023-04-28T22:14:01.784Z,12.03
2023-04-28T22:16:28.238Z,12.01
2023-04-28T22:18:54.635Z,12.03
2023-04-28T22:21:21.142Z,12.05
2023-04-28T22:23:47.702Z,12.08
2023-04-28T22:26:14.876Z,12.09
2023-04-28T22:28:41.605Z,12.05
2023-04-28T22:31:08.051Z,12.05
2023-04-28T22:33:34.653Z,12.04
2023-04-28T22:36:00.989Z,12.04
2023-04-28T22:38:27.298Z,11.94
2023-04-28T22:40:53.621Z,11.93
2023-04-28T22:43:19.969Z,11.92
2023-04-28T22:45:46.325Z,11.87
2023-04-28T22:48:13.705Z,11.87
2023-04-28T22:50:40.542Z,11.90
2023-04-28T22:53:08.291Z,11.89
2023-04-28T22:55:34.820Z,11.89
2023-04-28T22:58:01.189Z,11.87
2023-04-28T23:00:27.490Z,11.93
2023-04-28T23:02:53.897Z,11.94
2023-04-28T23:05:20.374Z,11.98
2023-04-28T23:07:46.692Z,12.05
2023-04-28T23:10:14.532Z,12.10
2023-04-28T23:12:41.281Z,12.18
2023-04-28T23:15:08.002Z,12.19
2023-04-28T23:17:34.429Z,12.17
2023-04-28T23:20:00.829Z,12.20
2023-04-28T23:22:27.126Z,12.23
2023-04-28T23:24:53.388Z,12.25
2023-04-28T23:27:19.688Z,12.24
2023-04-28T23:29:45.969Z,12.23
2023-04-28T23:32:12.658Z,12.23
2023-04-28T23:34:41.559Z,12.23
2023-04-28T23:37:07.982Z,12.25
2023-04-28T23:39:34.370Z,12.24
2023-04-28T23:42:02.210Z,12.23
2023-04-28T23:44:28.568Z,12.17
2023-04-28T23:46:56.138Z,12.20
2023-04-28T23:49:23.021Z,12.13
2023-04-28T23:51:49.461Z,12.12
2023-04-28T23:54:15.802Z,12.18
2023-04-28T23:56:42.165Z,12.18
2023-04-28T23:59:08.663Z,12.16
